createdAt,value
2022-09-01T00:03:01.743Z,74.42
2022-09-01T00:08:05.398Z,74.84
2022-09-01T00:13:09.877Z,73.85
2022-09-01T00:18:15.798Z,74.20
2022-09-01T00:23:18.908Z,75.03
2022-09-01T00:28:21.946Z,75.23
2022-09-01T00:33:33.638Z,75.09
2022-09-01T00:38:36.793Z,75.36
2022-09-01T00:43:44.547Z,75.65
2022-09-01T00:48:54.352Z,75.69
2022-09-01T00:53:59.842Z,75.24
2022-09-01T00:59:03.018Z,76.56
2022-09-01T01:04:14.880Z,76.33
2022-09-01T01:09:18.819Z,75.92
2022-09-01T01:14:21.911Z,76.11
2022-09-01T01:19:56.695Z,75.85
2022-09-01T01:25:01.855Z,76.82
2022-09-01T01:30:10.040Z,76.40
2022-09-01T01:35:15.923Z,76.39
2022-09-01T01:40:22.975Z,76.44
2022-09-01T01:45:26.703Z,76.42
2022-09-01T01:50:35.844Z,75.85
2022-09-01T01:55:41.864Z,76.56
2022-09-01T02:00:46.745Z,76.89
2022-09-01T02:05:54.876Z,76.20
2022-09-01T02:11:00.224Z,76.89
2022-09-01T02:16:13.089Z,77.04
2022-09-01T02:21:20.631Z,76.31
2022-09-01T02:26:30.188Z,77.18
2022-09-01T02:31:35.740Z,76.54
2022-09-01T02:36:42.513Z,77.60
2022-09-01T02:41:49.418Z,76.90
2022-09-01T02:46:54.730Z,76.99
2022-09-01T02:52:02.047Z,76.28
2022-09-01T02:57:09.148Z,76.79
2022-09-01T03:02:12.630Z,77.26
2022-09-01T03:07:19.511Z,77.79
2022-09-01T03:12:28.327Z,77.58
2022-09-01T03:17:31.319Z,77.46
2022-09-01T03:22:34.787Z,79.40
2022-09-01T03:27:39.178Z,78.36
2022-09-01T03:32:42.290Z,78.35
2022-09-01T03:37:45.411Z,79.00
2022-09-01T03:42:49.821Z,78.53
2022-09-01T03:47:54.423Z,78.69
2022-09-01T03:53:00.510Z,80.67
2022-09-01T03:58:10.190Z,80.94
2022-09-01T04:03:17.022Z,79.54
2022-09-01T04:08:23.045Z,78.97
2022-09-01T04:13:32.175Z,80.23
2022-09-01T04:18:35.275Z,80.88
2022-09-01T04:23:39.225Z,80.67
2022-09-01T04:28:48.337Z,79.60
2022-09-01T04:33:53.239Z,79.99
2022-09-01T04:39:00.755Z,81.27
2022-09-01T04:44:07.423Z,80.33
2022-09-01T04:49:16.276Z,79.58
2022-09-01T04:54:20.961Z,80.42
2022-09-01T04:59:27.331Z,79.11
2022-09-01T05:04:34.969Z,77.95
2022-09-01T05:09:39.686Z,79.50
2022-09-01T05:15:09.271Z,78.12
2022-09-01T05:20:13.987Z,78.30
2022-09-01T05:25:17.191Z,77.98
2022-09-01T05:30:22.783Z,79.97
2022-09-01T05:35:32.409Z,80.04
2022-09-01T05:40:41.429Z,79.21
2022-09-01T05:46:05.764Z,78.63
2022-09-01T05:51:27.506Z,77.72
2022-09-01T05:56:33.937Z,77.69
2022-09-01T06:01:41.836Z,77.38
2022-09-01T06:07:06.948Z,78.25
2022-09-01T06:12:18.102Z,78.21
2022-09-01T06:17:25.878Z,76.81
2022-09-01T06:22:32.982Z,75.62
2022-09-01T06:27:41.293Z,73.22
2022-09-01T06:32:46.849Z,75.67
2022-09-01T06:37:49.950Z,73.09
2022-09-01T06:43:12.169Z,73.02
2022-09-01T06:48:20.056Z,72.12
2022-09-01T06:53:34.543Z,70.58
2022-09-01T06:58:41.689Z,70.66
2022-09-01T07:03:48.653Z,68.09
2022-09-01T07:14:22.267Z,66.89
2022-09-01T07:19:48.400Z,66.78
2022-09-01T07:25:11.753Z,67.10
2022-09-01T07:30:31.962Z,66.47
2022-09-01T07:36:24.771Z,65.18
2022-09-01T07:46:46.284Z,62.12
2022-09-01T07:51:57.019Z,63.23
2022-09-01T07:57:03.056Z,59.66
2022-09-01T08:02:08.426Z,57.87
2022-09-01T08:07:17.108Z,57.85
2022-09-01T08:12:28.929Z,59.36
2022-09-01T08:17:34.457Z,59.47
2022-09-01T08:22:54.746Z,55.63
2022-09-01T08:28:00.765Z,57.84
2022-09-01T08:33:11.913Z,59.09
2022-09-01T08:38:20.342Z,53.94
2022-09-01T08:43:38.863Z,56.14
2022-09-01T08:54:29.759Z,56.67
2022-09-01T08:59:35.436Z,55.15
2022-09-01T09:04:59.124Z,52.14
2022-09-01T09:10:12.745Z,50.80
2022-09-01T09:15:23.660Z,54.50
2022-09-01T09:20:27.418Z,53.91
2022-09-01T09:25:31.791Z,51.50
2022-09-01T09:30:34.960Z,51.74
2022-09-01T09:35:42.011Z,51.90
2022-09-01T09:46:25.625Z,51.89
2022-09-01T09:51:29.523Z,50.26
2022-09-01T09:56:34.482Z,50.73
2022-09-01T10:01:37.660Z,49.55
2022-09-01T10:06:45.321Z,52.76
2022-09-01T10:11:54.009Z,49.46
2022-09-01T10:17:04.439Z,55.92
2022-09-01T10:22:12.564Z,52.09
2022-09-01T10:27:22.549Z,52.10
2022-09-01T10:32:38.241Z,50.57
2022-09-01T10:37:50.250Z,49.61
2022-09-01T10:42:57.073Z,50.09
2022-09-01T10:48:31.161Z,51.59
2022-09-01T10:53:41.351Z,50.49
2022-09-01T11:04:40.004Z,49.33
2022-09-01T11:09:45.116Z,48.11
2022-09-01T11:14:52.740Z,48.15
2022-09-01T11:19:59.234Z,47.65
2022-09-01T11:25:39.456Z,48.62
2022-09-01T11:30:52.919Z,46.73
2022-09-01T11:36:01.507Z,47.80
2022-09-01T11:41:06.559Z,44.64
2022-09-01T11:46:18.698Z,44.15
2022-09-01T11:51:22.305Z,40.88
2022-09-01T11:56:28.296Z,42.73
2022-09-01T12:01:36.391Z,43.57
2022-09-01T12:06:39.408Z,43.37
2022-09-01T12:11:42.755Z,43.48
2022-09-01T12:17:08.505Z,46.10
2022-09-01T12:22:16.148Z,45.76
2022-09-01T12:27:19.572Z,48.31
2022-09-01T12:32:24.056Z,46.97
2022-09-01T12:37:28.305Z,49.29
2022-09-01T12:42:41.166Z,48.18
2022-09-01T12:47:52.454Z,47.96
2022-09-01T12:52:58.280Z,46.70
2022-09-01T12:58:03.217Z,46.00
2022-09-01T13:03:14.144Z,45.10
2022-09-01T13:08:20.345Z,43.94
2022-09-01T13:13:25.596Z,45.47
2022-09-01T13:18:30.393Z,44.23
2022-09-01T13:23:33.459Z,42.95
2022-09-01T13:28:38.946Z,40.63
2022-09-01T13:39:08.260Z,38.11
2022-09-01T13:44:11.659Z,38.65
2022-09-01T13:54:38.958Z,38.40
2022-09-01T13:59:42.153Z,41.68
2022-09-01T14:04:46.550Z,44.91
2022-09-01T14:09:49.616Z,44.66
2022-09-01T14:20:19.799Z,42.78
2022-09-01T14:25:23.329Z,40.59
2022-09-01T14:30:31.597Z,39.39
2022-09-01T14:35:39.341Z,39.42
2022-09-01T14:40:44.679Z,41.00
2022-09-01T14:45:48.225Z,42.15
2022-09-01T14:50:52.779Z,42.30
2022-09-01T14:55:57.057Z,39.51
2022-09-01T15:01:11.880Z,38.69
2022-09-01T15:06:24.820Z,39.59
2022-09-01T15:11:28.487Z,38.45
2022-09-01T15:16:35.565Z,40.07
2022-09-01T15:21:42.115Z,40.99
2022-09-01T15:26:47.326Z,41.51
2022-09-01T15:31:50.372Z,43.45
2022-09-01T15:36:54.991Z,43.60
2022-09-01T15:41:58.006Z,45.32
2022-09-01T15:47:01.004Z,46.95
2022-09-01T15:52:05.689Z,46.97
2022-09-01T15:57:09.020Z,47.62
2022-09-01T16:02:15.289Z,47.16
2022-09-01T16:07:19.720Z,47.66
2022-09-01T16:12:22.819Z,49.25
2022-09-01T16:17:43.987Z,48.67
2022-09-01T16:22:54.783Z,49.55
2022-09-01T16:27:58.893Z,49.69
2022-09-01T16:33:19.872Z,49.68
2022-09-01T16:38:35.872Z,49.77
2022-09-01T16:43:48.468Z,49.59
2022-09-01T16:48:57.896Z,49.33
2022-09-01T16:54:13.025Z,49.26
2022-09-01T16:59:26.378Z,49.90
2022-09-01T17:04:37.099Z,49.53
2022-09-01T17:09:43.599Z,49.36
2022-09-01T17:14:52.043Z,50.03
2022-09-01T17:19:55.338Z,49.98
2022-09-01T17:30:12.594Z,50.94
2022-09-01T17:35:24.248Z,51.09
2022-09-01T17:40:35.702Z,51.21
2022-09-01T17:45:47.664Z,51.38
2022-09-01T17:51:04.509Z,52.02
2022-09-01T17:56:32.785Z,52.54
2022-09-01T18:01:43.921Z,53.26
2022-09-01T18:06:52.652Z,53.84
2022-09-01T18:12:02.605Z,54.50
2022-09-01T18:17:11.707Z,55.75
2022-09-01T18:22:18.068Z,56.39
2022-09-01T18:27:24.245Z,57.15
2022-09-01T18:32:40.271Z,57.60
2022-09-01T18:37:54.866Z,58.39
2022-09-01T18:43:12.486Z,59.42
2022-09-01T18:48:26.699Z,59.00
2022-09-01T18:53:37.934Z,59.45
2022-09-01T18:58:54.337Z,59.91
2022-09-01T19:04:09.898Z,59.75
2022-09-01T19:09:18.414Z,60.16
2022-09-01T19:14:30.395Z,60.56
2022-09-01T19:19:43.697Z,60.58
2022-09-01T19:24:51.961Z,60.78
2022-09-01T19:30:00.206Z,61.57
2022-09-01T19:35:11.302Z,62.32
2022-09-01T19:40:18.254Z,62.75
2022-09-01T19:45:41.851Z,62.94
2022-09-01T19:50:51.030Z,63.21
2022-09-01T19:55:58.912Z,63.56
2022-09-01T20:01:12.558Z,64.10
2022-09-01T20:06:25.135Z,64.67
2022-09-01T20:11:41.557Z,64.97
2022-09-01T20:16:48.633Z,65.35
2022-09-01T20:21:51.836Z,65.36
2022-09-01T20:27:01.648Z,65.32
2022-09-01T20:32:07.283Z,65.62
2022-09-01T20:37:16.007Z,66.55
2022-09-01T20:42:24.427Z,66.42
2022-09-01T20:47:30.629Z,66.43
2022-09-01T20:52:41.061Z,66.51
2022-09-01T20:57:51.997Z,67.02
2022-09-01T21:03:04.006Z,67.88
2022-09-01T21:08:19.230Z,67.55
2022-09-01T21:13:34.968Z,67.86
2022-09-01T21:18:53.996Z,67.81
2022-09-01T21:23:56.958Z,68.15
2022-09-01T21:29:08.216Z,68.00
2022-09-01T21:34:16.708Z,68.41
2022-09-01T21:39:19.940Z,69.02
2022-09-01T21:44:23.197Z,68.86
2022-09-01T21:49:27.617Z,69.00
2022-09-01T21:54:32.148Z,69.24
2022-09-01T21:59:35.211Z,70.09
2022-09-01T22:04:39.916Z,69.63
2022-09-01T22:09:43.107Z,70.02
2022-09-01T22:14:46.068Z,70.45
2022-09-01T22:19:50.445Z,69.90
2022-09-01T22:24:53.530Z,70.17
2022-09-01T22:29:56.538Z,69.63
2022-09-01T22:35:02.715Z,70.39
2022-09-01T22:40:07.412Z,69.78
2022-09-01T22:45:12.145Z,70.80
2022-09-01T22:50:16.547Z,71.17
2022-09-01T22:55:19.683Z,71.12
2022-09-01T23:00:22.707Z,71.38
2022-09-01T23:05:27.334Z,71.04
2022-09-01T23:10:30.448Z,70.87
2022-09-01T23:15:33.757Z,71.15
2022-09-01T23:20:38.108Z,71.75
2022-09-01T23:25:43.687Z,72.31
2022-09-01T23:30:49.805Z,72.03
2022-09-01T23:35:57.046Z,72.31
2022-09-01T23:41:01.420Z,71.83
2022-09-01T23:46:05.983Z,72.70
2022-09-01T23:51:11.939Z,73.05
2022-09-01T23:56:19.365Z,72.77
